createdAt,value
2022-10-22T00:02:44.000Z,100959.13
2022-10-22T00:07:49.194Z,100959.72
2022-10-22T00:12:50.905Z,100954.75
2022-10-22T00:17:54.911Z,100964.63
2022-10-22T00:22:56.738Z,100970.41
2022-10-22T00:27:58.415Z,100968.09
2022-10-22T00:33:03.414Z,100968.31
2022-10-22T00:38:05.624Z,100968.69
2022-10-22T00:43:11.334Z,100966.59
2022-10-22T00:48:28.499Z,100966.53
2022-10-22T00:53:36.709Z,100962.38
2022-10-22T00:58:48.028Z,100962.97
2022-10-22T01:03:50.330Z,100978.84
2022-10-22T01:09:03.810Z,100980.03
2022-10-22T01:14:19.300Z,100964.50
2022-10-22T01:19:29.644Z,100981.84
2022-10-22T01:24:52.564Z,100976.66
2022-10-22T01:29:58.857Z,100975.81
2022-10-22T01:35:03.406Z,100984.28
2022-10-22T01:40:06.361Z,100973.91
2022-10-22T01:45:14.166Z,100970.56
2022-10-22T01:50:27.989Z,100957.31
2022-10-22T01:55:46.533Z,100956.59
2022-10-22T02:00:59.072Z,100958.19
2022-10-22T02:06:09.959Z,100969.97
2022-10-22T02:11:17.048Z,100969.09
2022-10-22T02:16:29.408Z,100972.63
2022-10-22T02:21:31.190Z,100978.00
2022-10-22T02:26:40.788Z,100983.53
2022-10-22T02:31:44.636Z,100989.09
2022-10-22T02:36:49.669Z,100981.88
2022-10-22T02:41:52.214Z,100993.25
2022-10-22T02:46:53.886Z,100991.41
2022-10-22T02:51:57.971Z,100993.69
2022-10-22T02:57:04.356Z,100992.50
2022-10-22T03:02:08.636Z,100992.69
2022-10-22T03:07:12.878Z,100995.94
2022-10-22T03:12:14.578Z,101001.09
2022-10-22T03:17:18.494Z,101001.09
2022-10-22T03:22:25.492Z,101006.94
2022-10-22T03:27:31.782Z,101001.56
2022-10-22T03:32:36.593Z,100999.53
2022-10-22T03:37:38.876Z,101004.50
2022-10-22T03:42:43.484Z,101006.81
2022-10-22T03:47:45.157Z,101019.84
2022-10-22T03:52:47.811Z,101020.69
2022-10-22T03:57:51.759Z,101021.50
2022-10-22T04:02:53.425Z,101036.59
2022-10-22T04:07:58.046Z,101029.56
2022-10-22T04:13:04.453Z,101015.31
2022-10-22T04:18:06.107Z,101018.38
2022-10-22T04:23:10.272Z,101013.38
2022-10-22T04:28:11.891Z,101012.72
2022-10-22T04:33:15.584Z,101007.13
2022-10-22T04:38:19.498Z,101011.19
2022-10-22T04:43:25.847Z,101016.13
2022-10-22T04:48:28.668Z,101024.53
2022-10-22T04:53:35.624Z,101034.63
2022-10-22T04:58:39.454Z,101033.78
2022-10-22T05:03:41.736Z,101038.66
2022-10-22T05:08:52.845Z,101035.97
2022-10-22T05:13:58.143Z,101033.69
2022-10-22T05:19:04.643Z,101027.66
2022-10-22T05:24:06.793Z,101030.53
2022-10-22T05:29:11.164Z,101037.75
2022-10-22T05:34:13.414Z,101032.56
2022-10-22T05:39:21.126Z,101037.50
2022-10-22T05:44:22.796Z,101040.75
2022-10-22T05:49:27.671Z,101050.16
2022-10-22T05:54:31.967Z,101057.56
2022-10-22T05:59:36.236Z,101069.50
2022-10-22T06:04:40.124Z,101066.59
2022-10-22T06:09:41.805Z,101065.22
2022-10-22T06:14:43.488Z,101064.22
2022-10-22T06:19:47.935Z,101071.22
2022-10-22T06:24:54.615Z,101080.75
2022-10-22T06:29:58.657Z,101076.25
2022-10-22T06:35:00.410Z,101079.53
2022-10-22T06:40:04.876Z,101086.03
2022-10-22T06:45:09.655Z,101080.09
2022-10-22T06:50:13.640Z,101100.19
2022-10-22T06:55:19.942Z,101103.78
2022-10-22T07:00:22.462Z,101106.38
2022-10-22T07:05:28.477Z,101105.47
2022-10-22T07:10:37.546Z,101116.06
2022-10-22T07:15:41.735Z,101117.00
2022-10-22T07:20:47.402Z,101108.81
2022-10-22T07:25:51.606Z,101120.25
2022-10-22T07:30:58.252Z,101122.19
2022-10-22T07:36:05.335Z,101124.06
2022-10-22T07:41:10.148Z,101131.94
2022-10-22T07:46:12.187Z,101130.06
2022-10-22T07:51:16.917Z,101130.25
2022-10-22T07:56:20.691Z,101133.56
2022-10-22T08:01:22.451Z,101142.09
2022-10-22T08:06:24.214Z,101145.22
2022-10-22T08:11:26.971Z,101150.66
2022-10-22T08:16:33.344Z,101154.13
2022-10-22T08:21:37.551Z,101146.41
2022-10-22T08:26:40.246Z,101148.16
2022-10-22T08:31:44.268Z,101154.56
2022-10-22T08:36:46.375Z,101152.09
2022-10-22T08:41:50.951Z,101148.94
2022-10-22T08:47:07.117Z,101160.69
2022-10-22T08:52:16.591Z,101170.94
2022-10-22T08:57:42.887Z,101167.28
2022-10-22T09:03:10.453Z,101178.34
2022-10-22T09:08:18.092Z,101169.06
2022-10-22T09:13:21.663Z,101167.47
2022-10-22T09:18:42.028Z,101174.50
2022-10-22T09:24:04.773Z,101166.47
2022-10-22T09:29:07.567Z,101163.34
2022-10-22T09:34:09.385Z,101181.19
2022-10-22T09:39:34.361Z,101164.34
2022-10-22T09:44:37.856Z,101173.50
2022-10-22T09:49:39.516Z,101168.69
2022-10-22T09:54:42.841Z,101169.53
2022-10-22T09:59:48.485Z,101180.94
2022-10-22T10:04:57.381Z,101187.75
2022-10-22T10:09:59.385Z,101190.69
2022-10-22T10:15:19.133Z,101202.31
2022-10-22T10:21:01.469Z,101207.06
2022-10-22T10:26:35.884Z,101214.53
2022-10-22T10:32:01.914Z,101227.19
2022-10-22T10:37:29.965Z,101221.16
2022-10-22T10:42:43.920Z,101232.41
2022-10-22T10:48:00.405Z,101244.06
2022-10-22T10:53:10.265Z,101237.00
2022-10-22T10:58:14.921Z,101242.78
2022-10-22T11:04:02.112Z,101239.63
2022-10-22T11:09:15.776Z,101248.34
2022-10-22T11:14:31.304Z,101247.91
2022-10-22T11:19:51.675Z,101249.75
2022-10-22T11:25:17.208Z,101252.00
2022-10-22T11:30:23.501Z,101261.47
2022-10-22T11:35:28.382Z,101254.63
2022-10-22T11:40:36.538Z,101256.28
2022-10-22T11:45:41.397Z,101256.41
2022-10-22T11:50:48.945Z,101256.44
2022-10-22T11:55:52.834Z,101254.09
2022-10-22T12:01:30.543Z,101254.19
2022-10-22T12:06:56.939Z,101255.94
2022-10-22T12:12:10.780Z,101252.00
2022-10-22T12:17:18.148Z,101263.19
2022-10-22T12:22:25.805Z,101254.31
2022-10-22T12:27:39.154Z,101252.50
2022-10-22T12:32:43.839Z,101249.44
2022-10-22T12:37:50.770Z,101255.22
2022-10-22T12:43:15.965Z,101261.78
2022-10-22T12:48:24.811Z,101259.97
2022-10-22T12:53:55.748Z,101270.41
2022-10-22T12:59:00.102Z,101272.53
2022-10-22T13:04:14.413Z,101278.38
2022-10-22T13:09:23.962Z,101275.50
2022-10-22T13:14:31.784Z,101274.72
2022-10-22T13:19:38.917Z,101277.38
2022-10-22T13:24:49.078Z,101295.63
2022-10-22T13:29:53.209Z,101289.25
2022-10-22T13:34:58.520Z,101285.91
2022-10-22T13:40:11.396Z,101277.56
2022-10-22T13:45:14.465Z,101287.38
2022-10-22T13:50:22.957Z,101287.63
2022-10-22T13:55:27.222Z,101285.75
2022-10-22T14:00:33.731Z,101291.34
2022-10-22T14:05:35.555Z,101295.94
2022-10-22T14:10:39.489Z,101288.28
2022-10-22T14:15:47.244Z,101293.25
2022-10-22T14:21:04.804Z,101293.28
2022-10-22T14:26:18.114Z,101300.75
2022-10-22T14:31:24.024Z,101310.72
2022-10-22T14:36:28.092Z,101309.06
2022-10-22T14:41:32.107Z,101305.53
2022-10-22T14:46:36.088Z,101313.78
2022-10-22T14:51:38.066Z,101313.59
2022-10-22T14:56:42.277Z,101315.84
2022-10-22T15:01:51.028Z,101327.06
2022-10-22T15:06:56.336Z,101317.28
2022-10-22T15:12:00.464Z,101326.44
2022-10-22T15:17:02.167Z,101336.19
2022-10-22T15:22:05.815Z,101351.97
2022-10-22T15:27:08.088Z,101350.75
2022-10-22T15:32:12.134Z,101359.25
2022-10-22T15:37:19.542Z,101354.50
2022-10-22T15:42:21.257Z,101352.38
2022-10-22T15:47:24.347Z,101366.94
2022-10-22T15:52:28.927Z,101365.88
2022-10-22T15:57:30.726Z,101364.00
2022-10-22T16:02:35.207Z,101371.00
2022-10-22T16:07:39.438Z,101374.28
2022-10-22T16:12:41.861Z,101381.72
2022-10-22T16:17:46.098Z,101397.63
2022-10-22T16:22:55.350Z,101402.78
2022-10-22T16:27:59.659Z,101408.38
2022-10-22T16:33:03.434Z,101413.53
2022-10-22T16:38:05.468Z,101419.72
2022-10-22T16:43:07.246Z,101425.47
2022-10-22T16:48:11.735Z,101428.13
2022-10-22T16:53:13.420Z,101426.22
2022-10-22T16:58:17.776Z,101433.03
2022-10-22T17:03:24.536Z,101432.75
2022-10-22T17:08:31.619Z,101443.47
2022-10-22T17:13:36.278Z,101450.66
2022-10-22T17:18:41.595Z,101465.28
2022-10-22T17:23:46.158Z,101466.06
2022-10-22T17:28:51.165Z,101482.59
2022-10-22T17:33:54.927Z,101476.56
2022-10-22T17:39:01.989Z,101484.41
2022-10-22T17:44:09.083Z,101491.56
2022-10-22T17:49:22.861Z,101489.19
2022-10-22T17:54:29.284Z,101502.56
2022-10-22T17:59:33.598Z,101497.94
2022-10-22T18:04:37.588Z,101503.66
2022-10-22T18:09:40.487Z,101500.22
2022-10-22T18:14:44.818Z,101513.03
2022-10-22T18:19:50.879Z,101521.03
2022-10-22T18:24:57.175Z,101523.25
2022-10-22T18:29:58.884Z,101529.75
2022-10-22T18:35:03.046Z,101522.41
2022-10-22T18:40:06.189Z,101519.25
2022-10-22T18:45:08.143Z,101535.13
2022-10-22T18:50:12.773Z,101527.56
2022-10-22T18:55:19.436Z,101532.22
2022-10-22T19:00:21.109Z,101530.06
2022-10-22T19:05:22.914Z,101540.91
2022-10-22T19:10:27.994Z,101542.44
2022-10-22T19:15:32.379Z,101541.69
2022-10-22T19:20:35.178Z,101546.50
2022-10-22T19:25:37.370Z,101550.91
2022-10-22T19:30:44.727Z,101548.13
2022-10-22T19:35:46.477Z,101549.69
2022-10-22T19:40:48.218Z,101549.75
2022-10-22T19:45:49.974Z,101556.03
2022-10-22T19:50:59.657Z,101553.22
2022-10-22T19:56:06.786Z,101565.50
2022-10-22T20:01:16.671Z,101571.22
2022-10-22T20:06:22.187Z,101569.06
2022-10-22T20:11:42.952Z,101572.63
2022-10-22T20:16:44.769Z,101582.22
2022-10-22T20:21:50.533Z,101596.38
2022-10-22T20:26:52.329Z,101598.53
2022-10-22T20:31:56.403Z,101601.41
2022-10-22T20:37:01.122Z,101606.78
2022-10-22T20:42:03.402Z,101618.22
2022-10-22T20:47:05.194Z,101625.75
2022-10-22T20:52:09.234Z,101617.22
2022-10-22T20:57:15.650Z,101616.22
2022-10-22T21:02:19.663Z,101613.56
2022-10-22T21:07:25.037Z,101610.56
2022-10-22T21:12:31.928Z,101607.59
2022-10-22T21:17:33.638Z,101606.06
2022-10-22T21:22:40.819Z,101588.16
2022-10-22T21:27:45.042Z,101600.41
2022-10-22T21:32:46.759Z,101606.09
2022-10-22T21:37:48.509Z,101603.94
2022-10-22T21:42:50.482Z,101595.09
2022-10-22T21:47:55.123Z,101599.59
2022-10-22T21:53:01.754Z,101598.09
2022-10-22T21:58:03.445Z,101597.25
2022-10-22T22:03:07.036Z,101597.75
2022-10-22T22:08:11.066Z,101601.44
2022-10-22T22:13:12.831Z,101606.63
2022-10-22T22:18:14.496Z,101613.50
2022-10-22T22:23:20.877Z,101606.16
2022-10-22T22:28:27.521Z,101602.63
2022-10-22T22:33:29.236Z,101601.81
2022-10-22T22:38:30.906Z,101603.13
2022-10-22T22:43:35.454Z,101593.91
2022-10-22T22:48:42.936Z,101594.78
2022-10-22T22:53:44.898Z,101595.44
2022-10-22T22:58:46.995Z,101600.28
2022-10-22T23:03:56.087Z,101595.09
2022-10-22T23:09:00.317Z,101604.16
2022-10-22T23:14:04.619Z,101602.81
2022-10-22T23:19:06.353Z,101605.63
2022-10-22T23:24:13.003Z,101607.66
2022-10-22T23:29:26.168Z,101605.63
2022-10-22T23:34:29.019Z,101605.47
2022-10-22T23:39:33.905Z,101602.75
2022-10-22T23:44:35.593Z,101593.03
2022-10-22T23:49:39.945Z,101592.72
2022-10-22T23:54:41.749Z,101604.59
2022-10-22T23:59:43.402Z,101600.91
